Time;durP1;ratioP1;P1;durP2;ratioP2;P2;SDS_P1;SDS_P2;PMS_P1;PMS_P2;Temp;Humidity;BMP_temperature;BMP_pressure;BME280_temperature;BME280_humidity;BME280_pressure;Samples;Min_cycle;Max_cycle;Signal;HPM_P1;HPM_P2
2022/10/07 00:00:01;;;;;;;14.75;3.40;;;;;;;;;;5050891;28;20403;-64
2022/10/07 00:02:26;;;;;;;10.35;3.05;;;;;;;;;;5050168;28;20066;-63
2022/10/07 00:04:53;;;;;;;9.88;2.88;;;;;;;;;;5032783;28;20033;-63
2022/10/07 00:07:19;;;;;;;7.25;3.00;;;;;;;;;;5050705;28;20045;-63
2022/10/07 00:09:45;;;;;;;9.57;3.40;;;;;;;;;;5032155;28;20052;-63
2022/10/07 00:12:11;;;;;;;13.65;3.22;;;;;;;;;;5050307;28;20057;-63
2022/10/07 00:14:38;;;;;;;10.75;2.83;;;;;;;;;;5050673;28;20044;-64
2022/10/07 00:17:04;;;;;;;10.40;2.75;;;;;;;;;;5050449;28;20492;-63
2022/10/07 00:19:31;;;;;;;13.82;3.10;;;;;;;;;;5050236;28;20106;-63
2022/10/07 00:21:57;;;;;;;12.55;3.00;;;;;;;;;;5050210;28;20123;-64
2022/10/07 00:24:23;;;;;;;11.75;3.42;;;;;;;;;;5050651;28;20041;-64
2022/10/07 00:26:49;;;;;;;7.57;3.13;;;;;;;;;;5050184;28;20048;-64
2022/10/07 00:29:15;;;;;;;8.65;2.58;;;;;;;;;;5054391;28;20045;-63
2022/10/07 00:31:41;;;;;;;13.88;3.35;;;;;;;;;;5054487;28;20128;-64
2022/10/07 00:34:07;;;;;;;11.30;3.30;;;;;;;;;;5054199;28;20037;-63
2022/10/07 00:36:34;;;;;;;8.77;3.30;;;;;;;;;;5054608;28;20044;-64
2022/10/07 00:39:01;;;;;;;9.40;3.10;;;;;;;;;;5054277;28;20033;-64
2022/10/07 00:41:32;;;;;;;14.27;3.15;;;;;;;;;;5053734;28;20084;-64
2022/10/07 00:43:59;;;;;;;11.10;3.70;;;;;;;;;;5054389;28;20039;-64
2022/10/07 00:46:30;;;;;;;13.15;3.38;;;;;;;;;;5054428;28;20051;-64
2022/10/07 00:49:01;;;;;;;12.40;2.95;;;;;;;;;;5053745;28;20040;-64
2022/10/07 00:51:27;;;;;;;11.05;3.83;;;;;;;;;;5054357;28;20460;-64
2022/10/07 00:53:54;;;;;;;10.05;3.05;;;;;;;;;;5054449;28;20126;-64
2022/10/07 00:56:21;;;;;;;9.20;2.90;;;;;;;;;;5053759;28;20068;-64
2022/10/07 00:58:47;;;;;;;12.82;3.25;;;;;;;;;;5054050;28;20383;-64
2022/10/07 01:01:14;;;;;;;12.30;3.10;;;;;;;;;;5053949;28;20045;-64
2022/10/07 01:03:41;;;;;;;9.63;3.35;;;;;;;;;;5053684;28;20044;-64
2022/10/07 01:06:08;;;;;;;10.07;3.42;;;;;;;;;;5053684;28;20077;-64
2022/10/07 01:08:34;;;;;;;11.82;3.30;;;;;;;;;;5053817;28;20055;-64
2022/10/07 01:11:12;;;;;;;14.57;3.88;;;;;;;;;;5053113;28;20104;-64
2022/10/07 01:13:50;;;;;;;13.77;3.63;;;;;;;;;;5054133;28;20037;-64
2022/10/07 01:16:42;;;;;;;10.13;3.72;;;;;;;;;;5053848;28;20120;-64
2022/10/07 01:19:16;;;;;;;9.23;3.97;;;;;;;;;;5049978;28;20056;-64
2022/10/07 01:21:42;;;;;;;12.65;3.72;;;;;;;;;;5053811;28;20072;-64
2022/10/07 01:24:24;;;;;;;12.55;3.33;;;;;;;;;;5053327;28;20499;-64
2022/10/07 01:27:03;;;;;;;15.73;4.07;;;;;;;;;;5053626;28;20045;-64
2022/10/07 01:29:29;;;;;;;12.68;3.83;;;;;;;;;;5053498;28;20041;-64
2022/10/07 01:32:05;;;;;;;16.00;4.07;;;;;;;;;;5053285;28;20033;-64
2022/10/07 01:34:33;;;;;;;14.20;3.60;;;;;;;;;;5053543;28;20048;-64
2022/10/07 01:37:00;;;;;;;17.70;4.13;;;;;;;;;;5053501;28;20041;-64
2022/10/07 01:39:37;;;;;;;9.95;3.17;;;;;;;;;;5051768;28;20041;-64
2022/10/07 01:42:03;;;;;;;11.98;3.88;;;;;;;;;;5053397;28;20048;-64
2022/10/07 01:44:30;;;;;;;10.90;3.55;;;;;;;;;;5053372;28;20057;-64
2022/10/07 01:46:57;;;;;;;11.20;3.63;;;;;;;;;;5053020;28;20057;-64
2022/10/07 01:49:23;;;;;;;10.63;3.13;;;;;;;;;;5053157;28;20043;-64
2022/10/07 01:51:54;;;;;;;11.65;3.28;;;;;;;;;;5053110;28;20135;-64
2022/10/07 01:54:33;;;;;;;12.68;3.40;;;;;;;;;;5052545;28;20041;-64
2022/10/07 01:57:11;;;;;;;12.73;3.15;;;;;;;;;;5053204;28;20091;-64
2022/10/07 01:59:37;;;;;;;11.63;3.47;;;;;;;;;;5052760;28;20043;-64
2022/10/07 02:02:15;;;;;;;13.80;4.00;;;;;;;;;;5052655;28;20049;-64
2022/10/07 02:04:58;;;;;;;13.98;3.65;;;;;;;;;;5034739;28;20041;-64
2022/10/07 02:07:43;;;;;;;11.75;3.55;;;;;;;;;;5052945;28;20048;-64
2022/10/07 02:10:22;;;;;;;10.93;3.30;;;;;;;;;;5052200;28;20661;-64
2022/10/07 02:12:48;;;;;;;18.30;3.38;;;;;;;;;;5052815;28;20056;-64
2022/10/07 02:15:31;;;;;;;9.50;3.22;;;;;;;;;;5052847;28;20045;-64
2022/10/07 02:17:58;;;;;;;15.57;4.45;;;;;;;;;;5052627;28;20041;-64
2022/10/07 02:20:26;;;;;;;12.88;3.50;;;;;;;;;;5052769;28;20076;-64
2022/10/07 02:22:53;;;;;;;10.73;4.00;;;;;;;;;;5052680;28;20036;-64
2022/10/07 02:25:20;;;;;;;11.88;3.38;;;;;;;;;;5052369;28;20056;-64
2022/10/07 02:27:48;;;;;;;11.45;3.70;;;;;;;;;;5052522;28;20148;-64
2022/10/07 02:30:15;;;;;;;11.85;3.45;;;;;;;;;;5052482;28;20033;-64
2022/10/07 02:32:45;;;;;;;12.13;3.67;;;;;;;;;;5052246;28;20555;-64
2022/10/07 02:35:23;;;;;;;13.10;3.72;;;;;;;;;;5052085;28;20053;-64
2022/10/07 02:37:51;;;;;;;14.93;3.53;;;;;;;;;;5051935;28;20041;-64
2022/10/07 02:40:17;;;;;;;14.70;3.75;;;;;;;;;;5034718;28;20631;-64
2022/10/07 02:42:58;;;;;;;13.20;4.05;;;;;;;;;;5052228;28;20033;-64
2022/10/07 02:45:25;;;;;;;11.40;3.33;;;;;;;;;;5051891;28;20151;-64
2022/10/07 02:47:58;;;;;;;10.45;3.33;;;;;;;;;;5052049;28;20048;-64
2022/10/07 02:50:26;;;;;;;13.27;3.97;;;;;;;;;;5051909;28;20140;-64
2022/10/07 02:52:54;;;;;;;9.50;3.75;;;;;;;;;;5051635;28;20051;-64
2022/10/07 02:55:23;;;;;;;14.73;3.85;;;;;;;;;;5051980;28;20037;-64
2022/10/07 02:57:50;;;;;;;11.05;3.95;;;;;;;;;;5034017;28;20499;-64
2022/10/07 03:00:17;;;;;;;16.73;4.00;;;;;;;;;;5051485;28;20455;-64
2022/10/07 03:02:51;;;;;;;13.70;4.03;;;;;;;;;;5051690;28;20086;-64
2022/10/07 03:05:20;;;;;;;15.48;4.03;;;;;;;;;;5051812;28;20080;-64
2022/10/07 03:07:49;;;;;;;9.80;3.83;;;;;;;;;;5051205;28;20072;-64
2022/10/07 03:10:15;;;;;;;15.13;4.20;;;;;;;;;;5051434;28;20057;-64
2022/10/07 03:12:41;;;;;;;17.65;4.45;;;;;;;;;;5051584;28;20055;-64
2022/10/07 03:15:09;;;;;;;18.00;3.95;;;;;;;;;;5051340;28;20076;-64
2022/10/07 03:17:35;;;;;;;13.93;3.58;;;;;;;;;;5051684;28;20037;-64
2022/10/07 03:20:01;;;;;;;14.70;4.60;;;;;;;;;;5016871;28;20115;-64
2022/10/07 03:22:28;;;;;;;18.00;4.40;;;;;;;;;;5051085;28;20044;-64
2022/10/07 03:24:54;;;;;;;15.48;4.30;;;;;;;;;;5051475;28;20606;-64
2022/10/07 03:27:20;;;;;;;15.02;4.28;;;;;;;;;;5051275;28;20395;-64
2022/10/07 03:29:47;;;;;;;12.57;3.58;;;;;;;;;;5050738;28;20515;-64
2022/10/07 03:32:14;;;;;;;13.45;3.65;;;;;;;;;;5051283;28;20077;-64
2022/10/07 03:34:40;;;;;;;10.52;3.85;;;;;;;;;;5051193;28;20584;-64
2022/10/07 03:37:06;;;;;;;18.08;4.28;;;;;;;;;;5051046;28;20463;-64
2022/10/07 03:39:32;;;;;;;12.23;3.80;;;;;;;;;;5051192;28;20040;-64
2022/10/07 03:41:59;;;;;;;14.77;4.15;;;;;;;;;;5032928;28;20072;-64
2022/10/07 03:44:25;;;;;;;12.93;4.03;;;;;;;;;;5032861;28;20128;-64
2022/10/07 03:46:51;;;;;;;17.60;3.92;;;;;;;;;;5051061;28;20049;-64
2022/10/07 03:49:19;;;;;;;12.98;4.03;;;;;;;;;;5050797;28;20064;-64
2022/10/07 03:51:45;;;;;;;15.20;4.35;;;;;;;;;;5050699;28;20491;-64
2022/10/07 03:54:11;;;;;;;17.58;4.18;;;;;;;;;;5050815;28;20041;-64
2022/10/07 03:56:37;;;;;;;16.75;4.82;;;;;;;;;;5050702;28;20753;-64
2022/10/07 03:59:03;;;;;;;14.88;3.95;;;;;;;;;;5050760;28;20036;-64
2022/10/07 04:01:30;;;;;;;19.63;5.32;;;;;;;;;;5050327;28;20494;-64
2022/10/07 04:03:57;;;;;;;20.45;4.07;;;;;;;;;;5050492;28;20045;-64
2022/10/07 04:06:23;;;;;;;12.48;4.30;;;;;;;;;;5050436;28;20044;-64
2022/10/07 04:08:54;;;;;;;18.15;3.78;;;;;;;;;;5050168;28;20037;-64
2022/10/07 04:11:20;;;;;;;11.80;4.28;;;;;;;;;;5050304;28;20537;-64
2022/10/07 04:13:47;;;;;;;15.65;4.32;;;;;;;;;;5050510;28;20048;-64
2022/10/07 04:16:13;;;;;;;11.57;4.75;;;;;;;;;;5049957;28;20041;-64
2022/10/07 04:18:42;;;;;;;17.10;4.07;;;;;;;;;;5032495;28;20049;-64
2022/10/07 04:21:09;;;;;;;15.43;3.88;;;;;;;;;;5050654;28;20040;-64
2022/10/07 04:23:35;;;;;;;13.07;3.95;;;;;;;;;;5050035;28;20041;-64
2022/10/07 04:26:01;;;;;;;14.80;4.30;;;;;;;;;;5050586;28;20112;-64
2022/10/07 04:28:27;;;;;;;13.95;4.40;;;;;;;;;;5050602;28;20362;-64
2022/10/07 04:30:53;;;;;;;21.98;4.60;;;;;;;;;;5050186;28;20506;-64
2022/10/07 04:33:20;;;;;;;18.65;4.47;;;;;;;;;;5050532;28;20511;-64
2022/10/07 04:35:48;;;;;;;20.52;4.55;;;;;;;;;;5050476;28;20051;-63
2022/10/07 04:38:15;;;;;;;21.10;4.80;;;;;;;;;;5049828;28;20045;-63
2022/10/07 04:40:48;;;;;;;17.48;4.68;;;;;;;;;;5050334;28;20395;-64
2022/10/07 04:43:19;;;;;;;18.10;4.13;;;;;;;;;;5050361;28;20403;-63
2022/10/07 04:45:50;;;;;;;21.15;5.20;;;;;;;;;;5049937;28;20127;-63
2022/10/07 04:48:17;;;;;;;16.90;4.35;;;;;;;;;;5050059;28;20041;-63
2022/10/07 04:50:43;;;;;;;16.20;4.28;;;;;;;;;;5050048;28;20052;-63
2022/10/07 04:53:10;;;;;;;22.25;5.28;;;;;;;;;;5049840;28;20049;-63
2022/10/07 04:55:40;;;;;;;18.13;4.50;;;;;;;;;;5050281;28;20041;-63
2022/10/07 04:58:06;;;;;;;15.65;4.30;;;;;;;;;;5049867;28;20164;-63
2022/10/07 05:00:33;;;;;;;22.70;5.10;;;;;;;;;;5049867;28;20102;-63
2022/10/07 05:02:59;;;;;;;14.73;3.83;;;;;;;;;;5049913;28;20040;-63
2022/10/07 05:05:26;;;;;;;16.58;4.28;;;;;;;;;;5043966;28;20045;-63
2022/10/07 05:07:53;;;;;;;20.38;4.82;;;;;;;;;;5048734;28;20511;-63
2022/10/07 05:10:19;;;;;;;16.17;4.35;;;;;;;;;;5049662;28;20065;-63
2022/10/07 05:12:45;;;;;;;26.27;5.03;;;;;;;;;;5049973;28;20049;-63
2022/10/07 05:15:12;;;;;;;18.35;4.97;;;;;;;;;;5052714;28;20377;-63
2022/10/07 05:17:41;;;;;;;27.63;5.50;;;;;;;;;;5053816;28;20068;-63
2022/10/07 05:20:08;;;;;;;30.10;5.05;;;;;;;;;;5053511;28;20033;-63
2022/10/07 05:22:35;;;;;;;22.67;5.65;;;;;;;;;;5053108;28;20682;-63
2022/10/07 05:25:01;;;;;;;24.02;5.38;;;;;;;;;;5053142;28;20041;-63
2022/10/07 05:27:27;;;;;;;22.85;5.40;;;;;;;;;;5053530;28;20037;-63
2022/10/07 05:29:53;;;;;;;15.55;4.82;;;;;;;;;;5053136;28;20368;-63
2022/10/07 05:32:20;;;;;;;16.98;4.65;;;;;;;;;;5053167;28;20049;-63
2022/10/07 05:34:46;;;;;;;14.70;5.10;;;;;;;;;;5055475;28;20044;-63
2022/10/07 05:37:13;;;;;;;16.08;4.57;;;;;;;;;;5053089;28;20609;-63
2022/10/07 05:39:39;;;;;;;19.02;5.35;;;;;;;;;;5053127;28;20051;-63
2022/10/07 05:42:05;;;;;;;21.50;5.43;;;;;;;;;;5053352;28;20491;-63
2022/10/07 05:44:32;;;;;;;15.57;4.93;;;;;;;;;;5052258;28;20045;-63
2022/10/07 05:46:58;;;;;;;14.93;4.97;;;;;;;;;;5058261;28;20487;-63
2022/10/07 05:49:24;;;;;;;20.35;5.13;;;;;;;;;;5072858;28;20036;-64
2022/10/07 05:51:50;;;;;;;18.10;5.30;;;;;;;;;;5060292;28;20051;-62
2022/10/07 05:54:17;;;;;;;20.20;5.53;;;;;;;;;;5067034;28;20094;-64
2022/10/07 05:56:43;;;;;;;19.20;5.15;;;;;;;;;;5052643;28;20076;-64
2022/10/07 05:59:10;;;;;;;18.10;5.18;;;;;;;;;;5052040;28;20129;-64
2022/10/07 06:01:36;;;;;;;20.85;5.28;;;;;;;;;;5052427;28;20051;-66
2022/10/07 06:04:02;;;;;;;17.98;5.95;;;;;;;;;;5034356;28;20110;-66
2022/10/07 06:06:29;;;;;;;18.35;6.38;;;;;;;;;;5033607;28;20079;-66
2022/10/07 06:13:06;;;;;;;23.30;5.15;;;;;;;;;;5052517;28;20128;-65
2022/10/07 06:14:25;;;;;;;14.77;4.53;;;;;;;;;;5052017;28;20049;-69
2022/10/07 06:16:52;;;;;;;16.75;5.03;;;;;;;;;;5034317;28;20386;-69
2022/10/07 06:19:21;;;;;;;24.70;5.70;;;;;;;;;;5052055;28;20040;-69
2022/10/07 06:21:47;;;;;;;23.55;5.75;;;;;;;;;;5051712;28;20051;-67
2022/10/07 06:24:13;;;;;;;16.85;5.38;;;;;;;;;;5048658;28;20127;-64
2022/10/07 06:26:41;;;;;;;20.05;5.22;;;;;;;;;;5058653;28;20467;-64
2022/10/07 06:29:07;;;;;;;20.13;5.40;;;;;;;;;;5051536;28;20045;-67
2022/10/07 06:31:33;;;;;;;20.45;5.53;;;;;;;;;;5051747;28;20041;-67
2022/10/07 06:33:59;;;;;;;18.63;5.22;;;;;;;;;;5046927;28;20041;-66
2022/10/07 06:36:26;;;;;;;21.70;5.30;;;;;;;;;;5049689;28;20053;-67
2022/10/07 06:38:53;;;;;;;16.67;5.13;;;;;;;;;;5050562;28;20732;-66
2022/10/07 06:41:20;;;;;;;16.70;5.45;;;;;;;;;;5051457;28;20044;-67
2022/10/07 06:43:46;;;;;;;27.10;5.53;;;;;;;;;;5050712;28;20041;-67
2022/10/07 06:46:13;;;;;;;14.45;4.55;;;;;;;;;;5032970;28;20120;-68
2022/10/07 06:48:40;;;;;;;16.13;4.93;;;;;;;;;;5033009;28;20041;-66
2022/10/07 06:51:06;;;;;;;20.10;4.82;;;;;;;;;;5056104;28;20274;-68
2022/10/07 06:53:32;;;;;;;16.60;4.25;;;;;;;;;;5027112;28;20040;-65
2022/10/07 06:56:05;;;;;;;20.15;5.50;;;;;;;;;;5052635;28;20033;-67
2022/10/07 06:58:31;;;;;;;14.23;3.97;;;;;;;;;;5031434;28;20044;-67
2022/10/07 07:01:01;;;;;;;18.15;4.85;;;;;;;;;;5031566;28;20127;-67
2022/10/07 07:03:28;;;;;;;19.92;4.47;;;;;;;;;;5050395;28;20392;-67
2022/10/07 07:05:54;;;;;;;17.52;4.93;;;;;;;;;;5057597;28;20089;-66
2022/10/07 07:08:21;;;;;;;25.65;5.32;;;;;;;;;;5032312;28;20126;-66
2022/10/07 07:10:47;;;;;;;15.63;4.38;;;;;;;;;;5032248;28;20421;-65
2022/10/07 07:13:14;;;;;;;18.02;4.68;;;;;;;;;;5049636;28;20732;-68
2022/10/07 07:15:40;;;;;;;19.02;4.55;;;;;;;;;;5033350;28;20398;-66
2022/10/07 07:18:07;;;;;;;15.27;4.50;;;;;;;;;;5058405;28;20028;-64
2022/10/07 07:20:36;;;;;;;17.75;4.35;;;;;;;;;;5049821;28;20075;-66
2022/10/07 07:23:02;;;;;;;21.67;4.35;;;;;;;;;;5052528;28;20048;-66
2022/10/07 07:25:28;;;;;;;15.38;3.90;;;;;;;;;;5063109;28;20037;-66
2022/10/07 07:27:55;;;;;;;14.38;4.40;;;;;;;;;;5057774;28;20455;-66
2022/10/07 07:30:23;;;;;;;12.27;4.97;;;;;;;;;;5032335;28;20480;-66
2022/10/07 07:32:49;;;;;;;14.57;3.72;;;;;;;;;;5045446;28;20500;-67
2022/10/07 07:35:15;;;;;;;18.27;4.22;;;;;;;;;;5047887;28;20079;-67
2022/10/07 07:37:41;;;;;;;18.35;4.15;;;;;;;;;;5028365;28;20392;-64
2022/10/07 07:40:07;;;;;;;16.33;4.70;;;;;;;;;;5048641;28;20094;-64
2022/10/07 07:42:34;;;;;;;19.52;5.05;;;;;;;;;;5050846;28;20041;-68
2022/10/07 07:45:00;;;;;;;16.23;4.43;;;;;;;;;;5013285;28;20048;-67
2022/10/07 07:47:26;;;;;;;16.35;4.65;;;;;;;;;;5042323;28;20073;-66
2022/10/07 07:49:52;;;;;;;18.20;4.80;;;;;;;;;;5029667;28;20052;-66
2022/10/07 07:52:18;;;;;;;17.92;3.78;;;;;;;;;;5034208;28;20056;-64
2022/10/07 07:54:44;;;;;;;17.38;3.97;;;;;;;;;;5054376;28;20092;-64
2022/10/07 07:57:11;;;;;;;24.65;4.22;;;;;;;;;;5049329;28;20099;-64
2022/10/07 07:59:37;;;;;;;13.18;4.18;;;;;;;;;;5043796;28;20064;-63
2022/10/07 08:02:04;;;;;;;17.88;3.75;;;;;;;;;;5056418;28;20052;-63
2022/10/07 08:04:30;;;;;;;20.08;3.80;;;;;;;;;;5039412;28;20472;-64
2022/10/07 08:06:56;;;;;;;21.52;4.35;;;;;;;;;;5048192;28;20064;-65
2022/10/07 08:09:23;;;;;;;14.45;3.67;;;;;;;;;;5053372;28;20390;-64
2022/10/07 08:11:49;;;;;;;14.18;3.50;;;;;;;;;;5054624;28;20041;-65
2022/10/07 08:14:16;;;;;;;17.48;4.25;;;;;;;;;;5055145;28;20562;-66
2022/10/07 08:16:42;;;;;;;20.05;3.80;;;;;;;;;;5053570;28;20391;-66
2022/10/07 08:19:08;;;;;;;19.40;4.20;;;;;;;;;;5053420;28;20040;-65
2022/10/07 08:21:35;;;;;;;15.48;3.65;;;;;;;;;;5045699;28;20038;-64
2022/10/07 08:24:02;;;;;;;16.85;3.65;;;;;;;;;;5044865;28;20087;-64
2022/10/07 08:26:30;;;;;;;19.40;3.97;;;;;;;;;;5046820;28;20044;-65
2022/10/07 08:28:56;;;;;;;17.13;3.30;;;;;;;;;;5049378;28;20106;-64
2022/10/07 08:31:26;;;;;;;12.95;4.07;;;;;;;;;;5053144;28;20045;-64
2022/10/07 08:33:53;;;;;;;18.15;2.90;;;;;;;;;;5048604;28;20080;-65
2022/10/07 08:36:20;;;;;;;18.35;3.90;;;;;;;;;;5029419;28;20052;-65
2022/10/07 08:38:46;;;;;;;15.65;3.35;;;;;;;;;;5049530;28;20043;-69
2022/10/07 08:41:21;;;;;;;11.88;2.83;;;;;;;;;;5043137;28;20029;-67
2022/10/07 08:43:48;;;;;;;19.27;3.92;;;;;;;;;;5048827;28;20033;-63
2022/10/07 08:46:20;;;;;;;18.58;3.35;;;;;;;;;;5047425;28;20387;-67
2022/10/07 08:48:51;;;;;;;18.77;3.30;;;;;;;;;;5045175;28;20044;-64
2022/10/07 08:51:23;;;;;;;18.77;3.38;;;;;;;;;;5049719;28;20119;-63
2022/10/07 08:53:50;;;;;;;14.13;3.35;;;;;;;;;;5052503;28;20052;-63
2022/10/07 08:56:18;;;;;;;27.38;3.78;;;;;;;;;;5052238;28;20136;-63
2022/10/07 08:59:11;;;;;;;12.48;2.58;;;;;;;;;;5041730;28;20900;-64
2022/10/07 09:01:46;;;;;;;18.38;3.40;;;;;;;;;;5038432;28;20076;-65
2022/10/07 09:04:21;;;;;;;17.17;3.65;;;;;;;;;;5051074;28;20044;-65
2022/10/07 09:06:54;;;;;;;16.08;2.85;;;;;;;;;;5047844;28;20171;-65
2022/10/07 09:09:23;;;;;;;18.45;3.13;;;;;;;;;;5033253;28;20048;-65
2022/10/07 09:11:51;;;;;;;15.77;2.70;;;;;;;;;;5031956;28;20166;-66
2022/10/07 09:14:17;;;;;;;11.70;2.70;;;;;;;;;;5052195;28;20041;-66
2022/10/07 09:16:44;;;;;;;15.20;2.65;;;;;;;;;;5053353;28;20079;-64
2022/10/07 09:19:20;;;;;;;18.45;2.97;;;;;;;;;;5028909;28;20064;-70
2022/10/07 09:21:49;;;;;;;15.07;2.92;;;;;;;;;;5051440;28;20102;-65
2022/10/07 09:24:23;;;;;;;21.02;3.03;;;;;;;;;;5050390;28;20048;-67
2022/10/07 09:26:51;;;;;;;18.77;2.75;;;;;;;;;;5032431;28;20943;-65
2022/10/07 09:29:19;;;;;;;14.27;2.58;;;;;;;;;;5048147;28;20029;-65
2022/10/07 09:31:45;;;;;;;15.55;2.63;;;;;;;;;;5051468;28;20059;-64
2022/10/07 09:34:22;;;;;;;17.30;2.60;;;;;;;;;;5044646;28;20041;-62
2022/10/07 09:37:07;;;;;;;14.32;2.75;;;;;;;;;;5052792;28;20084;-65
2022/10/07 09:39:33;;;;;;;17.23;3.83;;;;;;;;;;5042781;28;20472;-67
2022/10/07 09:41:59;;;;;;;15.88;2.35;;;;;;;;;;5030985;28;20132;-66
2022/10/07 09:44:26;;;;;;;16.13;3.25;;;;;;;;;;5055037;28;20049;-66
2022/10/07 09:46:58;;;;;;;13.45;2.50;;;;;;;;;;5032573;28;20045;-64
2022/10/07 09:49:33;;;;;;;12.25;2.70;;;;;;;;;;5049818;28;20083;-64
2022/10/07 09:52:01;;;;;;;23.92;3.40;;;;;;;;;;5048832;28;20215;-67
2022/10/07 09:54:28;;;;;;;13.27;2.50;;;;;;;;;;5046054;28;20048;-67
2022/10/07 09:56:56;;;;;;;15.80;2.83;;;;;;;;;;5047400;28;20040;-66
2022/10/07 09:59:24;;;;;;;14.23;2.70;;;;;;;;;;5044952;28;20056;-66
2022/10/07 10:01:54;;;;;;;19.13;2.83;;;;;;;;;;5031897;28;20179;-67
2022/10/07 10:04:24;;;;;;;19.00;2.80;;;;;;;;;;5033779;28;20053;-64
2022/10/07 10:06:50;;;;;;;18.58;3.15;;;;;;;;;;5051295;28;20045;-67
2022/10/07 10:09:26;;;;;;;11.63;2.28;;;;;;;;;;5049203;28;20043;-65
2022/10/07 10:12:03;;;;;;;17.48;2.92;;;;;;;;;;5041309;28;20048;-64
2022/10/07 10:14:47;;;;;;;16.02;2.83;;;;;;;;;;5016714;28;20049;-64
2022/10/07 10:17:28;;;;;;;16.77;2.90;;;;;;;;;;5051905;28;20095;-65
2022/10/07 10:19:54;;;;;;;15.55;2.45;;;;;;;;;;5051270;28;20037;-67
2022/10/07 10:22:25;;;;;;;18.33;2.88;;;;;;;;;;5051651;28;20547;-67
2022/10/07 10:27:41;;;;;;;10.80;2.35;;;;;;;;;;5040967;28;20049;-64
2022/10/07 10:30:11;;;;;;;12.90;3.10;;;;;;;;;;5051823;28;20037;-65
2022/10/07 10:32:52;;;;;;;14.07;2.85;;;;;;;;;;5032711;28;20041;-65
2022/10/07 10:35:18;;;;;;;13.68;3.28;;;;;;;;;;5052234;28;20091;-66
2022/10/07 10:37:47;;;;;;;15.73;2.70;;;;;;;;;;5071509;28;20112;-65
2022/10/07 10:40:16;;;;;;;19.42;3.05;;;;;;;;;;5038190;28;20037;-65
2022/10/07 10:42:48;;;;;;;11.50;2.53;;;;;;;;;;5033650;28;20464;-64
2022/10/07 10:45:24;;;;;;;19.88;3.13;;;;;;;;;;5051369;28;20103;-64
2022/10/07 10:48:16;;;;;;;10.38;2.30;;;;;;;;;;5050743;28;20099;-65
2022/10/07 10:51:01;;;;;;;14.35;2.15;;;;;;;;;;5033551;28;20037;-64
2022/10/07 10:53:34;;;;;;;10.52;2.65;;;;;;;;;;5033298;28;20119;-65
2022/10/07 10:56:07;;;;;;;14.70;3.75;;;;;;;;;;5058577;28;20057;-64
2022/10/07 10:58:33;;;;;;;13.77;2.25;;;;;;;;;;5051320;28;20399;-64
2022/10/07 11:01:05;;;;;;;16.17;3.78;;;;;;;;;;5050729;28;20041;-65
2022/10/07 11:03:37;;;;;;;12.13;2.22;;;;;;;;;;5032819;28;20120;-65
2022/10/07 11:06:06;;;;;;;13.18;2.53;;;;;;;;;;5032920;28;20091;-67
2022/10/07 11:08:34;;;;;;;14.77;2.60;;;;;;;;;;5032197;28;20427;-65
2022/10/07 11:11:06;;;;;;;11.90;2.17;;;;;;;;;;5032634;28;20053;-66
2022/10/07 11:13:42;;;;;;;11.25;2.22;;;;;;;;;;5050497;28;20130;-64
2022/10/07 11:16:12;;;;;;;19.23;2.05;;;;;;;;;;5050138;28;20068;-65
2022/10/07 11:18:41;;;;;;;19.08;3.17;;;;;;;;;;5050608;28;20044;-66
2022/10/07 11:21:14;;;;;;;16.55;3.28;;;;;;;;;;5032402;28;20143;-65
2022/10/07 11:23:40;;;;;;;12.00;2.33;;;;;;;;;;5057679;28;20051;-66
2022/10/07 11:26:25;;;;;;;11.70;2.53;;;;;;;;;;5050471;28;20033;-67
2022/10/07 11:28:51;;;;;;;16.42;2.72;;;;;;;;;;5050600;28;20052;-67
2022/10/07 11:31:17;;;;;;;11.30;1.90;;;;;;;;;;5032054;28;20041;-65
2022/10/07 11:33:52;;;;;;;20.60;2.65;;;;;;;;;;5032407;28;20543;-65
2022/10/07 11:36:21;;;;;;;9.95;2.78;;;;;;;;;;5050385;28;20051;-65
2022/10/07 11:38:48;;;;;;;11.15;2.17;;;;;;;;;;5049811;28;20048;-65
2022/10/07 11:41:14;;;;;;;12.35;1.85;;;;;;;;;;5050740;28;20040;-65
2022/10/07 11:43:45;;;;;;;12.10;2.10;;;;;;;;;;5049995;28;20037;-66
2022/10/07 11:46:26;;;;;;;12.70;2.20;;;;;;;;;;5049890;28;20529;-66
2022/10/07 11:48:59;;;;;;;10.88;2.10;;;;;;;;;;5032078;28;20040;-65
2022/10/07 11:51:49;;;;;;;9.38;2.03;;;;;;;;;;5049955;28;20041;-65
2022/10/07 11:54:17;;;;;;;12.13;2.10;;;;;;;;;;5039659;28;20049;-64
2022/10/07 11:56:52;;;;;;;11.00;2.30;;;;;;;;;;5050449;28;20044;-66
2022/10/07 11:59:37;;;;;;;10.95;2.67;;;;;;;;;;5032109;28;20041;-68
2022/10/07 12:02:04;;;;;;;18.63;2.38;;;;;;;;;;5049607;28;20102;-66
2022/10/07 12:04:32;;;;;;;13.07;1.80;;;;;;;;;;5049924;28;20102;-66
2022/10/07 12:07:17;;;;;;;15.13;2.30;;;;;;;;;;5031893;28;20048;-65
2022/10/07 12:09:53;;;;;;;14.38;2.42;;;;;;;;;;5031224;28;20110;-67
2022/10/07 12:12:23;;;;;;;10.57;2.17;;;;;;;;;;5031778;28;20095;-67
2022/10/07 12:15:00;;;;;;;9.85;2.38;;;;;;;;;;5032124;28;20049;-66
2022/10/07 12:17:30;;;;;;;9.13;2.30;;;;;;;;;;5031626;28;20049;-66
2022/10/07 12:20:15;;;;;;;10.43;1.80;;;;;;;;;;5025616;28;20052;-65
2022/10/07 12:22:41;;;;;;;15.63;2.70;;;;;;;;;;5031597;28;20073;-67
2022/10/07 12:25:28;;;;;;;7.25;1.33;;;;;;;;;;5061109;28;20047;-65
2022/10/07 12:27:54;;;;;;;11.63;2.10;;;;;;;;;;5031294;28;20056;-65
2022/10/07 12:30:38;;;;;;;11.60;2.33;;;;;;;;;;5049172;28;20044;-67
2022/10/07 12:33:14;;;;;;;10.85;1.90;;;;;;;;;;5042364;28;20076;-67
2022/10/07 12:35:41;;;;;;;6.05;1.55;;;;;;;;;;5062796;28;20044;-65
2022/10/07 12:38:11;;;;;;;11.23;2.25;;;;;;;;;;5068514;28;20094;-64
2022/10/07 12:40:38;;;;;;;6.93;1.70;;;;;;;;;;5061482;28;20048;-66
2022/10/07 12:43:09;;;;;;;9.25;1.88;;;;;;;;;;5029823;28;20148;-64
2022/10/07 12:45:38;;;;;;;12.75;1.95;;;;;;;;;;5063824;28;20075;-67
2022/10/07 12:48:05;;;;;;;11.40;1.70;;;;;;;;;;5043375;28;20128;-67
2022/10/07 12:50:33;;;;;;;10.60;1.58;;;;;;;;;;5069203;28;20072;-68
2022/10/07 12:53:00;;;;;;;7.22;1.80;;;;;;;;;;5040970;28;20717;-66
2022/10/07 12:55:47;;;;;;;10.65;1.85;;;;;;;;;;5065356;28;20043;-66
2022/10/07 13:01:08;;;;;;;9.35;1.70;;;;;;;;;;5043101;28;20467;-65
2022/10/07 13:03:54;;;;;;;9.73;1.85;;;;;;;;;;5064454;28;20124;-67
2022/10/07 13:06:39;;;;;;;8.90;1.45;;;;;;;;;;5031247;28;20045;-67
2022/10/07 13:09:25;;;;;;;10.60;1.75;;;;;;;;;;5040348;28;20091;-65
2022/10/07 13:11:58;;;;;;;11.60;2.28;;;;;;;;;;5062026;28;20037;-64
2022/10/07 13:14:42;;;;;;;6.45;1.67;;;;;;;;;;5029661;28;20037;-66
2022/10/07 13:17:27;;;;;;;9.38;2.50;;;;;;;;;;5036659;28;20056;-64
2022/10/07 13:19:53;;;;;;;5.50;1.38;;;;;;;;;;5056528;28;20068;-66
2022/10/07 13:22:21;;;;;;;8.00;1.73;;;;;;;;;;5049213;28;20151;-65
2022/10/07 13:24:55;;;;;;;11.80;2.35;;;;;;;;;;5038739;28;20438;-65
2022/10/07 13:27:26;;;;;;;8.15;1.60;;;;;;;;;;5031379;28;20132;-67
2022/10/07 13:29:52;;;;;;;10.53;1.50;;;;;;;;;;5048603;28;20368;-66
2022/10/07 13:32:23;;;;;;;11.00;2.10;;;;;;;;;;5049253;28;20317;-66
2022/10/07 13:34:51;;;;;;;9.45;1.90;;;;;;;;;;5031599;28;20736;-69
2022/10/07 13:37:27;;;;;;;7.80;1.55;;;;;;;;;;5022473;28;20052;-65
2022/10/07 13:39:54;;;;;;;9.23;1.70;;;;;;;;;;5039181;28;20040;-66
2022/10/07 13:42:21;;;;;;;11.10;1.75;;;;;;;;;;5072589;28;20041;-66
2022/10/07 13:44:47;;;;;;;6.35;1.50;;;;;;;;;;5058267;28;20076;-66
2022/10/07 13:47:18;;;;;;;6.05;1.48;;;;;;;;;;5035273;28;20048;-65
2022/10/07 13:49:46;;;;;;;9.57;1.90;;;;;;;;;;5072670;28;20048;-64
2022/10/07 13:52:50;;;;;;;10.63;1.95;;;;;;;;;;5062598;28;20036;-65
2022/10/07 13:55:19;;;;;;;8.88;1.67;;;;;;;;;;4970914;28;20120;-64
2022/10/07 13:57:46;;;;;;;11.68;1.80;;;;;;;;;;4973704;28;20042;-65
2022/10/07 14:00:12;;;;;;;10.73;1.98;;;;;;;;;;5019186;28;20089;-64
2022/10/07 14:02:39;;;;;;;8.02;1.48;;;;;;;;;;5052357;28;20037;-65
2022/10/07 14:05:19;;;;;;;8.32;1.40;;;;;;;;;;5052353;28;20040;-63
2022/10/07 14:07:45;;;;;;;11.25;2.25;;;;;;;;;;5051499;28;20085;-62
2022/10/07 14:10:11;;;;;;;10.15;1.60;;;;;;;;;;5051973;28;20384;-63
2022/10/07 14:12:45;;;;;;;7.28;1.60;;;;;;;;;;5051715;28;20111;-63
2022/10/07 14:15:12;;;;;;;9.73;2.00;;;;;;;;;;5051842;28;20033;-63
2022/10/07 14:17:38;;;;;;;7.53;1.60;;;;;;;;;;5032737;28;20552;-66
2022/10/07 14:20:15;;;;;;;8.63;1.42;;;;;;;;;;5035065;28;20110;-64
2022/10/07 14:22:41;;;;;;;12.40;1.60;;;;;;;;;;5052048;28;20044;-63
2022/10/07 14:25:18;;;;;;;10.27;2.25;;;;;;;;;;5052309;28;20063;-63
2022/10/07 14:27:57;;;;;;;12.25;2.08;;;;;;;;;;5052338;28;20468;-68
2022/10/07 14:30:26;;;;;;;6.13;1.63;;;;;;;;;;5033465;28;20179;-68
2022/10/07 14:35:49;;;;;;;12.43;1.80;;;;;;;;;;5033664;28;20409;-67
2022/10/07 14:38:20;;;;;;;12.82;1.98;;;;;;;;;;5034359;28;20141;-67
2022/10/07 14:40:46;;;;;;;9.75;1.90;;;;;;;;;;5033900;28;20041;-67
2022/10/07 14:43:12;;;;;;;12.60;1.67;;;;;;;;;;5017023;28;20045;-68
2022/10/07 14:45:38;;;;;;;9.48;1.58;;;;;;;;;;5034309;28;20051;-67
2022/10/07 14:48:10;;;;;;;9.30;2.00;;;;;;;;;;5017229;28;20052;-67
2022/10/07 14:50:37;;;;;;;9.18;2.08;;;;;;;;;;5033683;28;20597;-68
2022/10/07 14:53:03;;;;;;;9.50;1.92;;;;;;;;;;5033923;28;20107;-67
2022/10/07 14:55:29;;;;;;;9.10;1.50;;;;;;;;;;5034181;28;20036;-67